sensor_id;sensor_type;location;lat;lon;timestamp;temperature;humidity
61392;DHT22;47261;52.892;5.738;2023-04-03T00:00:19;4.80;91.00
61392;DHT22;47261;52.892;5.738;2023-04-03T00:02:45;4.80;90.90
61392;DHT22;47261;52.892;5.738;2023-04-03T00:05:11;4.80;90.80
61392;DHT22;47261;52.892;5.738;2023-04-03T00:07:36;4.80;90.70
61392;DHT22;47261;52.892;5.738;2023-04-03T00:10:02;4.80;90.60
61392;DHT22;47261;52.892;5.738;2023-04-03T00:12:29;4.80;90.60
61392;DHT22;47261;52.892;5.738;2023-04-03T00:14:55;4.70;90.50
61392;DHT22;47261;52.892;5.738;2023-04-03T00:17:20;4.70;90.40
61392;DHT22;47261;52.892;5.738;2023-04-03T00:19:46;4.70;90.30
61392;DHT22;47261;52.892;5.738;2023-04-03T00:22:11;4.70;90.30
61392;DHT22;47261;52.892;5.738;2023-04-03T00:24:37;4.60;90.20
61392;DHT22;47261;52.892;5.738;2023-04-03T00:27:03;4.60;90.20
61392;DHT22;47261;52.892;5.738;2023-04-03T00:29:28;4.60;90.10
61392;DHT22;47261;52.892;5.738;2023-04-03T00:31:54;4.60;90.10
61392;DHT22;47261;52.892;5.738;2023-04-03T00:34:19;4.50;90.10
61392;DHT22;47261;52.892;5.738;2023-04-03T00:36:45;4.50;90.00
61392;DHT22;47261;52.892;5.738;2023-04-03T00:39:11;4.50;90.00
61392;DHT22;47261;52.892;5.738;2023-04-03T00:41:36;4.50;90.00
61392;DHT22;47261;52.892;5.738;2023-04-03T00:46:52;4.40;90.10
61392;DHT22;47261;52.892;5.738;2023-04-03T00:49:18;4.40;90.00
61392;DHT22;47261;52.892;5.738;2023-04-03T00:51:44;4.30;90.00
61392;DHT22;47261;52.892;5.738;2023-04-03T00:54:10;4.30;90.00
61392;DHT22;47261;52.892;5.738;2023-04-03T00:56:36;4.30;90.00
61392;DHT22;47261;52.892;5.738;2023-04-03T00:59:18;4.30;90.00
61392;DHT22;47261;52.892;5.738;2023-04-03T01:01:46;4.20;90.10
61392;DHT22;47261;52.892;5.738;2023-04-03T01:04:30;4.10;90.10
61392;DHT22;47261;52.892;5.738;2023-04-03T01:07:00;4.10;90.30
61392;DHT22;47261;52.892;5.738;2023-04-03T01:09:28;4.10;90.30
61392;DHT22;47261;52.892;5.738;2023-04-03T01:11:54;4.00;90.30
61392;DHT22;47261;52.892;5.738;2023-04-03T01:14:20;4.00;90.40
61392;DHT22;47261;52.892;5.738;2023-04-03T01:16:55;4.00;90.40
61392;DHT22;47261;52.892;5.738;2023-04-03T01:19:22;4.00;90.50
61392;DHT22;47261;52.892;5.738;2023-04-03T01:24:38;3.90;90.50
61392;DHT22;47261;52.892;5.738;2023-04-03T01:27:06;3.90;90.50
61392;DHT22;47261;52.892;5.738;2023-04-03T01:29:32;3.80;90.50
61392;DHT22;47261;52.892;5.738;2023-04-03T01:32:02;3.80;90.60
61392;DHT22;47261;52.892;5.738;2023-04-03T01:34:28;3.70;90.70
61392;DHT22;47261;52.892;5.738;2023-04-03T01:36:54;3.70;90.80
61392;DHT22;47261;52.892;5.738;2023-04-03T01:39:20;3.70;90.90
61392;DHT22;47261;52.892;5.738;2023-04-03T01:41:46;3.70;91.00
61392;DHT22;47261;52.892;5.738;2023-04-03T01:44:13;3.60;91.00
61392;DHT22;47261;52.892;5.738;2023-04-03T01:46:38;3.60;91.00
61392;DHT22;47261;52.892;5.738;2023-04-03T01:49:04;3.50;91.10
61392;DHT22;47261;52.892;5.738;2023-04-03T01:51:30;3.50;91.30
61392;DHT22;47261;52.892;5.738;2023-04-03T01:53:56;3.50;91.40
61392;DHT22;47261;52.892;5.738;2023-04-03T01:56:22;3.50;91.50
61392;DHT22;47261;52.892;5.738;2023-04-03T01:58:48;3.50;91.60
61392;DHT22;47261;52.892;5.738;2023-04-03T02:01:13;3.50;91.70
61392;DHT22;47261;52.892;5.738;2023-04-03T02:03:39;3.50;91.80
61392;DHT22;47261;52.892;5.738;2023-04-03T02:06:05;3.50;91.90
61392;DHT22;47261;52.892;5.738;2023-04-03T02:08:30;3.50;92.00
61392;DHT22;47261;52.892;5.738;2023-04-03T02:10:56;3.50;92.10
61392;DHT22;47261;52.892;5.738;2023-04-03T02:13:22;3.50;92.20
61392;DHT22;47261;52.892;5.738;2023-04-03T02:15:47;3.50;92.20
61392;DHT22;47261;52.892;5.738;2023-04-03T02:18:13;3.50;92.20
61392;DHT22;47261;52.892;5.738;2023-04-03T02:20:39;3.50;92.20
61392;DHT22;47261;52.892;5.738;2023-04-03T02:23:05;3.50;92.50
61392;DHT22;47261;52.892;5.738;2023-04-03T02:25:32;3.40;92.20
61392;DHT22;47261;52.892;5.738;2023-04-03T02:27:58;3.40;92.20
61392;DHT22;47261;52.892;5.738;2023-04-03T02:30:23;3.40;92.20
61392;DHT22;47261;52.892;5.738;2023-04-03T02:32:49;3.30;92.20
61392;DHT22;47261;52.892;5.738;2023-04-03T02:35:15;3.30;92.40
61392;DHT22;47261;52.892;5.738;2023-04-03T02:37:41;3.30;92.40
61392;DHT22;47261;52.892;5.738;2023-04-03T02:40:07;3.30;92.60
61392;DHT22;47261;52.892;5.738;2023-04-03T02:42:33;3.30;92.60
61392;DHT22;47261;52.892;5.738;2023-04-03T02:44:59;3.30;92.70
61392;DHT22;47261;52.892;5.738;2023-04-03T02:47:26;3.20;92.70
61392;DHT22;47261;52.892;5.738;2023-04-03T02:49:52;3.20;92.70
61392;DHT22;47261;52.892;5.738;2023-04-03T02:52:18;3.20;92.70
61392;DHT22;47261;52.892;5.738;2023-04-03T02:54:43;3.20;92.80
61392;DHT22;47261;52.892;5.738;2023-04-03T02:57:10;3.10;92.80
61392;DHT22;47261;52.892;5.738;2023-04-03T02:59:36;3.10;92.80
61392;DHT22;47261;52.892;5.738;2023-04-03T03:02:02;3.10;92.90
61392;DHT22;47261;52.892;5.738;2023-04-03T03:04:28;3.10;93.00
61392;DHT22;47261;52.892;5.738;2023-04-03T03:06:53;3.00;93.10
61392;DHT22;47261;52.892;5.738;2023-04-03T03:09:19;3.00;93.40
61392;DHT22;47261;52.892;5.738;2023-04-03T03:11:45;3.00;93.50
61392;DHT22;47261;52.892;5.738;2023-04-03T03:14:10;3.00;93.60
61392;DHT22;47261;52.892;5.738;2023-04-03T03:16:36;3.00;94.00
61392;DHT22;47261;52.892;5.738;2023-04-03T03:19:02;3.00;93.90
61392;DHT22;47261;52.892;5.738;2023-04-03T03:21:27;3.00;94.00
61392;DHT22;47261;52.892;5.738;2023-04-03T03:23:53;3.00;94.00
61392;DHT22;47261;52.892;5.738;2023-04-03T03:26:19;3.00;94.00
61392;DHT22;47261;52.892;5.738;2023-04-03T03:28:44;3.00;94.00
61392;DHT22;47261;52.892;5.738;2023-04-03T03:31:11;3.00;94.10
61392;DHT22;47261;52.892;5.738;2023-04-03T03:33:37;3.00;94.20
61392;DHT22;47261;52.892;5.738;2023-04-03T03:36:03;3.00;94.30
61392;DHT22;47261;52.892;5.738;2023-04-03T03:38:28;3.00;94.20
61392;DHT22;47261;52.892;5.738;2023-04-03T03:40:54;3.00;94.40
61392;DHT22;47261;52.892;5.738;2023-04-03T03:43:20;3.00;94.40
61392;DHT22;47261;52.892;5.738;2023-04-03T03:45:50;3.00;94.40
61392;DHT22;47261;52.892;5.738;2023-04-03T03:48:16;3.00;94.60
61392;DHT22;47261;52.892;5.738;2023-04-03T03:50:42;2.90;94.50
61392;DHT22;47261;52.892;5.738;2023-04-03T03:53:07;2.90;94.50
61392;DHT22;47261;52.892;5.738;2023-04-03T03:55:33;2.90;94.60
61392;DHT22;47261;52.892;5.738;2023-04-03T03:57:59;2.90;94.70
61392;DHT22;47261;52.892;5.738;2023-04-03T04:00:26;2.90;94.70
61392;DHT22;47261;52.892;5.738;2023-04-03T04:02:52;2.90;94.70
61392;DHT22;47261;52.892;5.738;2023-04-03T04:05:17;2.90;94.80
61392;DHT22;47261;52.892;5.738;2023-04-03T04:07:43;2.90;94.90
61392;DHT22;47261;52.892;5.738;2023-04-03T04:10:09;2.90;95.00
61392;DHT22;47261;52.892;5.738;2023-04-03T04:12:35;2.90;95.00
61392;DHT22;47261;52.892;5.738;2023-04-03T04:15:01;2.90;95.10
61392;DHT22;47261;52.892;5.738;2023-04-03T04:17:27;2.90;95.10
61392;DHT22;47261;52.892;5.738;2023-04-03T04:19:53;2.90;95.20
61392;DHT22;47261;52.892;5.738;2023-04-03T04:22:18;2.90;95.20
61392;DHT22;47261;52.892;5.738;2023-04-03T04:24:44;2.90;95.30
61392;DHT22;47261;52.892;5.738;2023-04-03T04:27:10;2.80;95.20
61392;DHT22;47261;52.892;5.738;2023-04-03T04:29:35;2.80;95.20
61392;DHT22;47261;52.892;5.738;2023-04-03T04:32:03;2.80;95.30
61392;DHT22;47261;52.892;5.738;2023-04-03T04:34:30;2.80;95.40
61392;DHT22;47261;52.892;5.738;2023-04-03T04:36:56;2.80;95.40
61392;DHT22;47261;52.892;5.738;2023-04-03T04:39:21;2.80;95.30
61392;DHT22;47261;52.892;5.738;2023-04-03T04:41:47;2.80;95.30
61392;DHT22;47261;52.892;5.738;2023-04-03T04:44:13;2.80;95.40
61392;DHT22;47261;52.892;5.738;2023-04-03T04:46:38;2.80;95.50
61392;DHT22;47261;52.892;5.738;2023-04-03T04:49:04;2.80;95.50
61392;DHT22;47261;52.892;5.738;2023-04-03T04:51:30;2.80;95.50
61392;DHT22;47261;52.892;5.738;2023-04-03T04:53:56;2.80;95.50
61392;DHT22;47261;52.892;5.738;2023-04-03T04:56:22;2.80;95.50
61392;DHT22;47261;52.892;5.738;2023-04-03T04:58:47;2.70;95.40
61392;DHT22;47261;52.892;5.738;2023-04-03T05:01:13;2.70;95.40
61392;DHT22;47261;52.892;5.738;2023-04-03T05:03:39;2.70;95.40
61392;DHT22;47261;52.892;5.738;2023-04-03T05:06:05;2.60;95.40
61392;DHT22;47261;52.892;5.738;2023-04-03T05:08:30;2.60;95.40
61392;DHT22;47261;52.892;5.738;2023-04-03T05:10:56;2.60;95.30
61392;DHT22;47261;52.892;5.738;2023-04-03T05:13:22;2.50;95.30
61392;DHT22;47261;52.892;5.738;2023-04-03T05:15:47;2.50;95.30
61392;DHT22;47261;52.892;5.738;2023-04-03T05:18:13;2.40;95.30
61392;DHT22;47261;52.892;5.738;2023-04-03T05:20:39;2.40;95.40
61392;DHT22;47261;52.892;5.738;2023-04-03T05:23:05;2.40;95.50
61392;DHT22;47261;52.892;5.738;2023-04-03T05:25:31;2.30;95.70
61392;DHT22;47261;52.892;5.738;2023-04-03T05:27:56;2.30;95.80
61392;DHT22;47261;52.892;5.738;2023-04-03T05:30:22;2.30;95.90
61392;DHT22;47261;52.892;5.738;2023-04-03T05:32:47;2.30;96.00
61392;DHT22;47261;52.892;5.738;2023-04-03T05:35:13;2.30;96.00
61392;DHT22;47261;52.892;5.738;2023-04-03T05:37:39;2.30;96.00
61392;DHT22;47261;52.892;5.738;2023-04-03T05:40:06;2.30;96.10
61392;DHT22;47261;52.892;5.738;2023-04-03T05:42:32;2.30;96.10
61392;DHT22;47261;52.892;5.738;2023-04-03T05:44:58;2.30;96.10
61392;DHT22;47261;52.892;5.738;2023-04-03T05:47:24;2.40;96.10
61392;DHT22;47261;52.892;5.738;2023-04-03T05:49:49;2.40;96.10
61392;DHT22;47261;52.892;5.738;2023-04-03T05:52:25;2.60;96.00
61392;DHT22;47261;52.892;5.738;2023-04-03T05:54:52;2.80;95.80
61392;DHT22;47261;52.892;5.738;2023-04-03T05:57:17;2.90;95.60
61392;DHT22;47261;52.892;5.738;2023-04-03T05:59:45;3.00;95.40
61392;DHT22;47261;52.892;5.738;2023-04-03T06:02:15;3.10;95.30
61392;DHT22;47261;52.892;5.738;2023-04-03T06:04:41;3.20;95.30
61392;DHT22;47261;52.892;5.738;2023-04-03T06:07:21;3.30;95.30
61392;DHT22;47261;52.892;5.738;2023-04-03T06:09:48;3.30;95.30
61392;DHT22;47261;52.892;5.738;2023-04-03T06:12:15;3.30;95.40
61392;DHT22;47261;52.892;5.738;2023-04-03T06:14:40;3.30;95.40
61392;DHT22;47261;52.892;5.738;2023-04-03T06:17:07;3.30;95.50
61392;DHT22;47261;52.892;5.738;2023-04-03T06:19:34;3.30;95.50
61392;DHT22;47261;52.892;5.738;2023-04-03T06:22:00;3.30;95.50
61392;DHT22;47261;52.892;5.738;2023-04-03T06:24:26;3.30;95.40
61392;DHT22;47261;52.892;5.738;2023-04-03T06:26:52;3.30;95.50
61392;DHT22;47261;52.892;5.738;2023-04-03T06:29:18;3.30;95.60
61392;DHT22;47261;52.892;5.738;2023-04-03T06:31:44;3.30;95.40
61392;DHT22;47261;52.892;5.738;2023-04-03T06:34:10;3.30;95.50
61392;DHT22;47261;52.892;5.738;2023-04-03T06:36:37;3.30;95.50
61392;DHT22;47261;52.892;5.738;2023-04-03T06:39:04;3.40;95.30
61392;DHT22;47261;52.892;5.738;2023-04-03T06:41:30;3.40;95.00
61392;DHT22;47261;52.892;5.738;2023-04-03T06:43:55;3.40;95.10
61392;DHT22;47261;52.892;5.738;2023-04-03T06:46:23;3.50;95.20
61392;DHT22;47261;52.892;5.738;2023-04-03T06:48:49;3.50;95.10
61392;DHT22;47261;52.892;5.738;2023-04-03T06:51:26;3.50;95.00
61392;DHT22;47261;52.892;5.738;2023-04-03T06:53:53;3.50;94.90
61392;DHT22;47261;52.892;5.738;2023-04-03T06:56:20;3.50;94.80
61392;DHT22;47261;52.892;5.738;2023-04-03T06:58:46;3.50;94.70
61392;DHT22;47261;52.892;5.738;2023-04-03T07:01:13;3.60;94.70
61392;DHT22;47261;52.892;5.738;2023-04-03T07:03:39;3.70;94.70
61392;DHT22;47261;52.892;5.738;2023-04-03T07:06:06;3.70;94.50
61392;DHT22;47261;52.892;5.738;2023-04-03T07:08:33;3.70;94.50
61392;DHT22;47261;52.892;5.738;2023-04-03T07:11:00;3.70;94.50
61392;DHT22;47261;52.892;5.738;2023-04-03T07:13:26;3.80;94.50
61392;DHT22;47261;52.892;5.738;2023-04-03T07:15:52;3.80;94.50
61392;DHT22;47261;52.892;5.738;2023-04-03T07:18:18;3.90;94.50
61392;DHT22;47261;52.892;5.738;2023-04-03T07:20:43;3.90;94.30
61392;DHT22;47261;52.892;5.738;2023-04-03T07:23:09;3.90;94.20
61392;DHT22;47261;52.892;5.738;2023-04-03T07:25:36;3.90;94.00
61392;DHT22;47261;52.892;5.738;2023-04-03T07:28:01;3.90;94.00
61392;DHT22;47261;52.892;5.738;2023-04-03T07:30:27;4.00;94.10
61392;DHT22;47261;52.892;5.738;2023-04-03T07:32:53;4.00;94.00
61392;DHT22;47261;52.892;5.738;2023-04-03T07:35:19;4.10;94.20
61392;DHT22;47261;52.892;5.738;2023-04-03T07:37:44;4.20;94.10
61392;DHT22;47261;52.892;5.738;2023-04-03T07:40:10;4.30;93.80
61392;DHT22;47261;52.892;5.738;2023-04-03T07:42:36;4.30;93.40
61392;DHT22;47261;52.892;5.738;2023-04-03T07:45:03;4.40;93.40
61392;DHT22;47261;52.892;5.738;2023-04-03T07:47:29;4.50;93.30
61392;DHT22;47261;52.892;5.738;2023-04-03T07:49:55;4.60;93.20
61392;DHT22;47261;52.892;5.738;2023-04-03T07:52:23;4.60;92.90
61392;DHT22;47261;52.892;5.738;2023-04-03T07:54:48;4.70;92.60
61392;DHT22;47261;52.892;5.738;2023-04-03T07:57:14;4.70;92.30
61392;DHT22;47261;52.892;5.738;2023-04-03T07:59:40;4.80;92.30
61392;DHT22;47261;52.892;5.738;2023-04-03T08:02:09;4.90;92.00
61392;DHT22;47261;52.892;5.738;2023-04-03T08:04:35;5.00;91.30
61392;DHT22;47261;52.892;5.738;2023-04-03T08:07:01;5.00;91.00
61392;DHT22;47261;52.892;5.738;2023-04-03T08:09:27;5.10;91.00
61392;DHT22;47261;52.892;5.738;2023-04-03T08:11:52;5.20;91.20
61392;DHT22;47261;52.892;5.738;2023-04-03T08:14:19;5.30;90.90
61392;DHT22;47261;52.892;5.738;2023-04-03T08:16:47;5.40;90.90
61392;DHT22;47261;52.892;5.738;2023-04-03T08:19:14;5.50;90.50
61392;DHT22;47261;52.892;5.738;2023-04-03T08:21:41;5.60;89.90
61392;DHT22;47261;52.892;5.738;2023-04-03T08:24:07;5.70;88.40
61392;DHT22;47261;52.892;5.738;2023-04-03T08:26:34;5.90;87.90
61392;DHT22;47261;52.892;5.738;2023-04-03T08:29:00;6.00;87.30
61392;DHT22;47261;52.892;5.738;2023-04-03T08:31:26;6.10;86.90
61392;DHT22;47261;52.892;5.738;2023-04-03T08:33:52;6.20;85.60
61392;DHT22;47261;52.892;5.738;2023-04-03T08:36:23;6.40;85.50
61392;DHT22;47261;52.892;5.738;2023-04-03T08:38:52;6.40;84.60
61392;DHT22;47261;52.892;5.738;2023-04-03T08:49:33;6.70;78.90
61392;DHT22;47261;52.892;5.738;2023-04-03T08:52:03;6.70;77.40
61392;DHT22;47261;52.892;5.738;2023-04-03T08:54:33;6.70;75.40
61392;DHT22;47261;52.892;5.738;2023-04-03T08:57:02;6.80;75.90
61392;DHT22;47261;52.892;5.738;2023-04-03T08:59:33;6.90;75.20
61392;DHT22;47261;52.892;5.738;2023-04-03T09:02:02;7.10;75.50
61392;DHT22;47261;52.892;5.738;2023-04-03T09:04:32;7.20;74.90
61392;DHT22;47261;52.892;5.738;2023-04-03T09:07:15;7.30;73.70
61392;DHT22;47261;52.892;5.738;2023-04-03T09:09:45;7.30;73.40
61392;DHT22;47261;52.892;5.738;2023-04-03T09:12:24;7.40;71.20
61392;DHT22;47261;52.892;5.738;2023-04-03T09:18:03;7.50;69.10
61392;DHT22;47261;52.892;5.738;2023-04-03T09:23:42;7.80;68.80
61392;DHT22;47261;52.892;5.738;2023-04-03T09:26:16;8.00;68.60
61392;DHT22;47261;52.892;5.738;2023-04-03T09:28:42;8.20;66.40
61392;DHT22;47261;52.892;5.738;2023-04-03T09:31:23;8.40;64.80
61392;DHT22;47261;52.892;5.738;2023-04-03T09:34:04;8.60;65.50
61392;DHT22;47261;52.892;5.738;2023-04-03T09:39:28;9.00;63.20
61392;DHT22;47261;52.892;5.738;2023-04-03T09:44:30;9.40;62.00
61392;DHT22;47261;52.892;5.738;2023-04-03T09:46:56;9.50;60.30
61392;DHT22;47261;52.892;5.738;2023-04-03T09:49:22;9.60;58.70
61392;DHT22;47261;52.892;5.738;2023-04-03T09:51:48;9.70;57.40
61392;DHT22;47261;52.892;5.738;2023-04-03T09:54:32;9.70;57.70
61392;DHT22;47261;52.892;5.738;2023-04-03T09:57:07;9.90;57.70
61392;DHT22;47261;52.892;5.738;2023-04-03T09:59:33;10.00;56.90
61392;DHT22;47261;52.892;5.738;2023-04-03T10:04:39;10.20;57.40
61392;DHT22;47261;52.892;5.738;2023-04-03T10:07:25;10.30;57.20
61392;DHT22;47261;52.892;5.738;2023-04-03T10:09:58;10.50;57.10
61392;DHT22;47261;52.892;5.738;2023-04-03T10:12:25;10.50;55.20
61392;DHT22;47261;52.892;5.738;2023-04-03T10:14:57;10.40;54.90
61392;DHT22;47261;52.892;5.738;2023-04-03T10:17:53;10.40;54.50
61392;DHT22;47261;52.892;5.738;2023-04-03T10:20:40;10.30;53.90
61392;DHT22;47261;52.892;5.738;2023-04-03T10:23:23;10.20;54.70
61392;DHT22;47261;52.892;5.738;2023-04-03T10:26:12;10.20;54.20
61392;DHT22;47261;52.892;5.738;2023-04-03T10:31:37;10.20;54.50
61392;DHT22;47261;52.892;5.738;2023-04-03T10:34:24;10.20;54.80
61392;DHT22;47261;52.892;5.738;2023-04-03T10:37:01;10.30;54.60
61392;DHT22;47261;52.892;5.738;2023-04-03T10:42:35;10.30;54.00
61392;DHT22;47261;52.892;5.738;2023-04-03T10:56:07;10.30;53.70
61392;DHT22;47261;52.892;5.738;2023-04-03T10:58:43;10.20;51.60
61392;DHT22;47261;52.892;5.738;2023-04-03T11:01:15;10.10;52.70
61392;DHT22;47261;52.892;5.738;2023-04-03T11:03:47;10.10;52.70
61392;DHT22;47261;52.892;5.738;2023-04-03T11:06:15;10.30;53.90
61392;DHT22;47261;52.892;5.738;2023-04-03T11:09:23;10.30;52.40
61392;DHT22;47261;52.892;5.738;2023-04-03T11:11:55;10.40;53.10
61392;DHT22;47261;52.892;5.738;2023-04-03T11:14:34;10.50;53.80
61392;DHT22;47261;52.892;5.738;2023-04-03T11:22:31;10.80;51.80
61392;DHT22;47261;52.892;5.738;2023-04-03T11:27:37;10.80;52.60
61392;DHT22;47261;52.892;5.738;2023-04-03T11:30:07;10.90;52.50
61392;DHT22;47261;52.892;5.738;2023-04-03T11:32:56;11.00;52.00
61392;DHT22;47261;52.892;5.738;2023-04-03T11:35:26;11.10;52.50
61392;DHT22;47261;52.892;5.738;2023-04-03T11:37:53;11.20;52.80
61392;DHT22;47261;52.892;5.738;2023-04-03T11:40:29;11.20;51.60
61392;DHT22;47261;52.892;5.738;2023-04-03T11:43:17;11.20;51.30
61392;DHT22;47261;52.892;5.738;2023-04-03T11:45:55;11.10;49.20
61392;DHT22;47261;52.892;5.738;2023-04-03T11:50:58;11.10;52.40
61392;DHT22;47261;52.892;5.738;2023-04-03T11:53:40;11.20;50.60
61392;DHT22;47261;52.892;5.738;2023-04-03T12:04:13;11.30;49.60
61392;DHT22;47261;52.892;5.738;2023-04-03T12:11:55;11.30;49.50
61392;DHT22;47261;52.892;5.738;2023-04-03T12:14:23;11.40;50.40
61392;DHT22;47261;52.892;5.738;2023-04-03T12:16:53;11.50;49.80
61392;DHT22;47261;52.892;5.738;2023-04-03T12:19:37;11.50;50.10
61392;DHT22;47261;52.892;5.738;2023-04-03T12:22:08;11.60;49.70
61392;DHT22;47261;52.892;5.738;2023-04-03T12:24:37;11.70;48.80
61392;DHT22;47261;52.892;5.738;2023-04-03T12:35:39;11.70;48.40
61392;DHT22;47261;52.892;5.738;2023-04-03T12:43:35;11.90;48.60
61392;DHT22;47261;52.892;5.738;2023-04-03T12:51:14;11.90;47.40
61392;DHT22;47261;52.892;5.738;2023-04-03T12:53:40;11.90;47.80
61392;DHT22;47261;52.892;5.738;2023-04-03T12:58:46;11.90;47.50
61392;DHT22;47261;52.892;5.738;2023-04-03T13:01:13;12.00;47.60
61392;DHT22;47261;52.892;5.738;2023-04-03T13:03:42;12.00;47.50
61392;DHT22;47261;52.892;5.738;2023-04-03T13:06:26;11.90;47.60
61392;DHT22;47261;52.892;5.738;2023-04-03T13:08:58;11.80;47.40
61392;DHT22;47261;52.892;5.738;2023-04-03T13:11:30;11.80;48.10
61392;DHT22;47261;52.892;5.738;2023-04-03T13:14:19;11.70;46.90
61392;DHT22;47261;52.892;5.738;2023-04-03T13:16:55;11.60;47.80
61392;DHT22;47261;52.892;5.738;2023-04-03T13:19:26;11.50;46.50
61392;DHT22;47261;52.892;5.738;2023-04-03T13:22:06;11.40;48.20
61392;DHT22;47261;52.892;5.738;2023-04-03T13:24:36;11.40;47.80
61392;DHT22;47261;52.892;5.738;2023-04-03T13:27:03;11.40;47.60
61392;DHT22;47261;52.892;5.738;2023-04-03T13:29:33;11.40;48.00
61392;DHT22;47261;52.892;5.738;2023-04-03T13:32:01;11.50;47.90
61392;DHT22;47261;52.892;5.738;2023-04-03T13:34:32;11.50;47.90
61392;DHT22;47261;52.892;5.738;2023-04-03T13:37:01;11.50;47.60
61392;DHT22;47261;52.892;5.738;2023-04-03T13:39:37;11.50;48.10
61392;DHT22;47261;52.892;5.738;2023-04-03T13:42:22;11.60;48.20
61392;DHT22;47261;52.892;5.738;2023-04-03T13:44:49;11.70;48.40
61392;DHT22;47261;52.892;5.738;2023-04-03T13:47:19;11.80;48.40
61392;DHT22;47261;52.892;5.738;2023-04-03T13:50:03;11.90;47.90
61392;DHT22;47261;52.892;5.738;2023-04-03T13:52:40;12.00;47.30
61392;DHT22;47261;52.892;5.738;2023-04-03T13:55:24;12.00;47.60
61392;DHT22;47261;52.892;5.738;2023-04-03T14:00:38;12.10;47.70
61392;DHT22;47261;52.892;5.738;2023-04-03T14:03:33;12.10;47.20
61392;DHT22;47261;52.892;5.738;2023-04-03T14:05:59;12.20;47.40
61392;DHT22;47261;52.892;5.738;2023-04-03T14:08:26;12.30;47.40
61392;DHT22;47261;52.892;5.738;2023-04-03T14:10:53;12.30;47.40
61392;DHT22;47261;52.892;5.738;2023-04-03T14:13:20;12.20;47.30
61392;DHT22;47261;52.892;5.738;2023-04-03T14:15:47;12.30;47.90
61392;DHT22;47261;52.892;5.738;2023-04-03T14:18:17;12.30;47.30
61392;DHT22;47261;52.892;5.738;2023-04-03T14:20:47;12.50;47.10
61392;DHT22;47261;52.892;5.738;2023-04-03T14:23:13;12.50;46.70
61392;DHT22;47261;52.892;5.738;2023-04-03T14:25:39;12.40;46.60
61392;DHT22;47261;52.892;5.738;2023-04-03T14:28:20;12.40;47.00
61392;DHT22;47261;52.892;5.738;2023-04-03T14:30:48;12.20;47.40
61392;DHT22;47261;52.892;5.738;2023-04-03T14:33:20;12.20;47.60
61392;DHT22;47261;52.892;5.738;2023-04-03T14:35:47;12.20;47.70
61392;DHT22;47261;52.892;5.738;2023-04-03T14:38:23;12.30;48.20
61392;DHT22;47261;52.892;5.738;2023-04-03T14:40:49;12.30;47.80
61392;DHT22;47261;52.892;5.738;2023-04-03T14:43:15;12.40;47.90
61392;DHT22;47261;52.892;5.738;2023-04-03T14:45:41;12.50;47.40
61392;DHT22;47261;52.892;5.738;2023-04-03T14:48:15;12.50;47.10
61392;DHT22;47261;52.892;5.738;2023-04-03T14:50:41;12.50;47.20
61392;DHT22;47261;52.892;5.738;2023-04-03T14:53:07;12.60;47.30
61392;DHT22;47261;52.892;5.738;2023-04-03T14:55:33;12.60;47.20
61392;DHT22;47261;52.892;5.738;2023-04-03T14:57:59;12.70;47.50
61392;DHT22;47261;52.892;5.738;2023-04-03T15:00:25;12.80;47.20
61392;DHT22;47261;52.892;5.738;2023-04-03T15:02:51;12.90;47.50
61392;DHT22;47261;52.892;5.738;2023-04-03T15:05:17;12.80;47.20
61392;DHT22;47261;52.892;5.738;2023-04-03T15:07:56;12.60;47.30
61392;DHT22;47261;52.892;5.738;2023-04-03T15:10:26;12.40;47.20
61392;DHT22;47261;52.892;5.738;2023-04-03T15:12:52;12.10;47.40
61392;DHT22;47261;52.892;5.738;2023-04-03T15:15:19;12.00;47.70
61392;DHT22;47261;52.892;5.738;2023-04-03T15:17:47;11.90;47.90
61392;DHT22;47261;52.892;5.738;2023-04-03T15:20:18;11.70;47.70
61392;DHT22;47261;52.892;5.738;2023-04-03T15:22:45;11.50;48.30
61392;DHT22;47261;52.892;5.738;2023-04-03T15:25:10;11.50;48.70
61392;DHT22;47261;52.892;5.738;2023-04-03T15:27:37;11.40;48.50
61392;DHT22;47261;52.892;5.738;2023-04-03T15:30:05;11.30;48.90
61392;DHT22;47261;52.892;5.738;2023-04-03T15:32:31;11.30;49.90
61392;DHT22;47261;52.892;5.738;2023-04-03T15:34:59;11.20;49.20
61392;DHT22;47261;52.892;5.738;2023-04-03T15:37:24;11.20;48.80
61392;DHT22;47261;52.892;5.738;2023-04-03T15:39:50;11.10;48.90
61392;DHT22;47261;52.892;5.738;2023-04-03T15:42:16;11.10;48.40
61392;DHT22;47261;52.892;5.738;2023-04-03T15:44:41;11.00;49.00
61392;DHT22;47261;52.892;5.738;2023-04-03T15:47:07;10.90;49.60
61392;DHT22;47261;52.892;5.738;2023-04-03T15:49:33;10.90;50.20
61392;DHT22;47261;52.892;5.738;2023-04-03T15:51:59;10.90;50.50
61392;DHT22;47261;52.892;5.738;2023-04-03T15:54:26;10.90;50.10
61392;DHT22;47261;52.892;5.738;2023-04-03T15:56:52;10.80;50.10
61392;DHT22;47261;52.892;5.738;2023-04-03T15:59:18;10.80;50.50
61392;DHT22;47261;52.892;5.738;2023-04-03T16:01:44;10.70;50.20
61392;DHT22;47261;52.892;5.738;2023-04-03T16:04:10;10.60;49.70
61392;DHT22;47261;52.892;5.738;2023-04-03T16:06:37;10.60;49.90
61392;DHT22;47261;52.892;5.738;2023-04-03T16:09:03;10.50;50.70
61392;DHT22;47261;52.892;5.738;2023-04-03T16:11:30;10.40;50.10
61392;DHT22;47261;52.892;5.738;2023-04-03T16:13:56;10.40;51.00
61392;DHT22;47261;52.892;5.738;2023-04-03T16:16:23;10.40;50.20
61392;DHT22;47261;52.892;5.738;2023-04-03T16:18:50;10.30;50.00
61392;DHT22;47261;52.892;5.738;2023-04-03T16:21:16;10.30;49.90
61392;DHT22;47261;52.892;5.738;2023-04-03T16:23:43;10.30;50.40
61392;DHT22;47261;52.892;5.738;2023-04-03T16:26:09;10.30;51.60
61392;DHT22;47261;52.892;5.738;2023-04-03T16:28:34;10.20;51.40
61392;DHT22;47261;52.892;5.738;2023-04-03T16:31:01;10.10;51.00
61392;DHT22;47261;52.892;5.738;2023-04-03T16:33:27;10.10;51.10
61392;DHT22;47261;52.892;5.738;2023-04-03T16:35:53;10.00;50.70
61392;DHT22;47261;52.892;5.738;2023-04-03T16:38:19;10.00;50.90
61392;DHT22;47261;52.892;5.738;2023-04-03T16:40:45;10.00;50.60
61392;DHT22;47261;52.892;5.738;2023-04-03T16:43:11;9.90;50.90
61392;DHT22;47261;52.892;5.738;2023-04-03T16:45:37;9.90;50.90
61392;DHT22;47261;52.892;5.738;2023-04-03T16:48:03;9.90;51.20
61392;DHT22;47261;52.892;5.738;2023-04-03T16:50:29;9.80;51.60
61392;DHT22;47261;52.892;5.738;2023-04-03T16:52:55;9.80;51.90
61392;DHT22;47261;52.892;5.738;2023-04-03T16:55:20;9.70;51.70
61392;DHT22;47261;52.892;5.738;2023-04-03T16:57:46;9.60;51.60
61392;DHT22;47261;52.892;5.738;2023-04-03T17:00:13;9.60;52.80
61392;DHT22;47261;52.892;5.738;2023-04-03T17:02:39;9.60;52.40
61392;DHT22;47261;52.892;5.738;2023-04-03T17:05:05;9.60;53.10
61392;DHT22;47261;52.892;5.738;2023-04-03T17:07:32;9.60;53.50
61392;DHT22;47261;52.892;5.738;2023-04-03T17:09:58;9.60;54.30
61392;DHT22;47261;52.892;5.738;2023-04-03T17:12:23;9.50;54.80
61392;DHT22;47261;52.892;5.738;2023-04-03T17:14:50;9.50;55.40
61392;DHT22;47261;52.892;5.738;2023-04-03T17:17:20;9.50;55.70
61392;DHT22;47261;52.892;5.738;2023-04-03T17:19:46;9.50;56.30